KSFO/SFO METAR and TAF weather

Enter ICAO airport designator
Station Type Date Time Source
KSFO METAR 2019/08/24 21:56 UTC NOAA

KSFO 242156Z 30016KT 10SM FEW006 22/14 A2993 RMK AO2 SLP134 T02220144


Station Type Date Time Source
KSFO Decoded METAR 2019/08/24 21:56 UTC NOAA

Station name not available
Aug 24, 2019 - 05:56 PM EDT / 2019.08.24 2156 UTC
Wind: from the WNW (300 degrees) at 18 MPH (16 KT):0
Visibility: 10 mile(s):0
Sky conditions: mostly clear
Temperature: 72.0 F (22.2 C)
Dew Point: 57.9 F (14.4 C)
Relative Humidity: 61%
Pressure (altimeter): 29.93 in. Hg (1013 hPa)
ob: KSFO 242156Z 30016KT 10SM FEW006 22/14 A2993 RMK AO2 SLP134 T02220144
cycle: 22

Station Type Date Time Source
KSFO TAF 2019/08/24 21:03 UTC NOAA

TAF
AMD KSFO 242101Z 2421/2524 30017KT P6SM FEW010
FM250300 29010KT P6SM FEW010
FM250900 27006KT P6SM SCT011
FM251400 28004KT P6SM BKN015
FM251700 33005KT P6SM FEW012
FM252100 30015KT P6SM FEW015

Example: see airport list